2 Giugno 2019 | Ceresara

Aviosuperficie di San Martino

Ceresara (MN)

L’evento

Dalle ore 10 al tramonto.

Aperto al pubblico, ingresso gratuito

Galleria foto courtesy di Pierangelo Gatto

Jesolo Air Show 2019

La pattuglia Legend allo Jesolo Air Show 2019

30 anni di AMX

Il G46 del Museo Volante partecipa alle celebrazioni dei 30 anni dell’AMX all’aeroprto di Istrana con la pattuglia Legend

G46 nuovamente in formazione dopo 50 anni!

Due FIAT G46 in formazione, dopo oltre mezzo secolo dall’ultima volta che era accaduto

Ultime News

Mudry CAP 10B

Questo splendido Mudry CAP 10B, costruito nel 1973 (esemplare n.41), da qualche anno risiede in Italia grazie all’amore del suo proprietario

Bird Dog

Dopo parecchio tempo di fermo macchina questo bellissimo Cessna O-1 Bird Dog è tornato a volare

Harvard e Texan

A dispetto del loro nome, alla base di entrambi c’è lo stesso progetto. Saranno tra gli ospiti della prossima edizione!

I velivoli della collezione Marchi – Sorlini

La collezione è stata iniziata dall’imprenditore bresciano Luciano Sorlini (1925-2015), ed è oggi mantenuta in ordine di volo dalla figlia Silvia e dal marito Giovanni Marchi.

I velivoli ospiti

Alcuni dei velivoli storici partecipanti alle passate edizioni, in gran parte dei Soci HAG (ma è solo un assaggio: ce ne saranno MOLTI altri!)

Comunicato stampa dell’evento

Per chi volesse stampare il volantino della manifestazione (e magari distribuirlo in giro…), eccolo qui:

Dicono di noi…

Alcuni articoli apparsi sulla stampa e sul web

Video dell’edizione 2017

(courtesy of Dee jay Dinero)

Video dell’edizione 2018

(courtesy of Frequency Brescia)

In collaborazione con

Con la partecipazione di

 

Historical Aircraft Group

Comune di Ceresara

Dove siamo

45° 15′  52″ N – 10° 31′ 54″ E

Via S. Martino 68 – Ceresara (MN)

 

Meteorologia aeronautica 

Aeroporto di Verona
VILLAFRANCA(CV/M
Metar
LIPX 152050Z VRB01KT 9999 BKN050 15/15 Q1011

20:50 UTC

Wind: ° 1kt

Visibility: 9999 m

Sky: BKN 5000 ft

Temp: 15 deg C / 59 deg F

Dewpoint: 15 deg C / 59 deg F

Pressure: 1011 hPa

TAF
TAF LIPX 152000Z 1521/1606 04006KT 9999 SCT060 PROB40 TEMPO 1521/1523 3000 TSRA BKN012CB BKN040 TEMPO 1602/1606 3000 BR

Aeroporto di Brescia
BRESCIA/MONTICHI
Metar
LIPO 152050Z 14006KT CAVOK 16/15 Q1010

20:50 UTC

Wind: 140° 6kt

Visibility:

Sky:

Temp: 16 deg C / 60.8 deg F

Dewpoint: 15 deg C / 59 deg F

Pressure: 1010 hPa

TAF
TAF LIPO 151700Z 1518/1618 VRB05KT 4000 BR SCT015 BKN060 PROB40 TEMPO 1518/1522 09013KT 2000 TSRA BKN012CB BKN030 TEMPO 1600/1607 1200 BCFG BKN005 BECMG 607/1610 7000

Aeroporto di Parma
PARMA
Metar
LIMP 152050Z 08009KT 5000 BR SCT030 16/16 Q1010

20:50 UTC

Wind: 80° 9kt

Visibility: 5000 m

Sky: SCT 3000 ft

Temp: 16 deg C / 60.8 deg F

Dewpoint: 16 deg C / 60.8 deg F

Pressure: 1010 hPa

TAF
TAF LIMP 151700Z 1518/1618 09008KT 3000 BR SCT012 BKN025 PROB40 TEMPO 1518/1520 TSRA BKN008CB OVC020 TEMPO 1600/1607 1200 BCFG BKN005 BECMG 1607/1610 7000 SCT025

Le domande più frequenti…

Contatti

Per saperne di più, scrivici!

2 + 14 =

Antispam: rispondere alla domanda prima di inviare il messaggio

Il copyright delle immagini e dei video di questo sito appartiene ai loro autori. Nonstante le ricerche, non sempre è stato possibile contattare l'autore per richiedere l'autorizzazione alla pubblicazione. I detentori del copyright delle immagini qui utilizzate possono contattarci per vedere riconosciuto il loro diritto di citazione, o, se preferiscono, farle rimuovere.

Total Website Visits: 20350